createdAt,value
2023-03-26T00:00:16.789Z,9.27
2023-03-26T00:03:08.392Z,9.26
2023-03-26T00:05:40.266Z,9.26
2023-03-26T00:08:11.601Z,9.23
2023-03-26T00:10:44.717Z,9.24
2023-03-26T00:13:14.826Z,9.21
2023-03-26T00:15:44.786Z,9.19
2023-03-26T00:18:16.020Z,9.18
2023-03-26T00:20:46.425Z,9.16
2023-03-26T00:23:15.836Z,9.15
2023-03-26T00:25:46.759Z,9.13
2023-03-26T00:28:21.897Z,9.11
2023-03-26T00:31:00.069Z,9.10
2023-03-26T00:33:30.064Z,9.08
2023-03-26T00:36:05.178Z,9.08
2023-03-26T00:38:39.591Z,9.07
2023-03-26T00:41:23.399Z,9.08
2023-03-26T00:43:59.013Z,9.08
2023-03-26T00:46:31.773Z,9.08
2023-03-26T00:49:04.553Z,9.06
2023-03-26T00:51:35.325Z,9.04
2023-03-26T00:54:08.129Z,9.03
2023-03-26T00:56:39.193Z,9.02
2023-03-26T00:59:09.899Z,9.02
2023-03-26T01:01:40.248Z,9.00
2023-03-26T01:04:35.279Z,8.98
2023-03-26T01:07:17.215Z,8.96
2023-03-26T01:09:52.500Z,8.94
2023-03-26T01:12:27.548Z,8.92
2023-03-26T01:15:01.499Z,8.90
2023-03-26T01:17:34.847Z,8.87
2023-03-26T01:20:21.590Z,8.86
2023-03-26T01:23:07.276Z,8.83
2023-03-26T01:25:46.475Z,8.80
2023-03-26T01:28:19.024Z,8.77
2023-03-26T01:31:15.566Z,8.74
2023-03-26T01:33:58.155Z,8.70
2023-03-26T01:36:50.733Z,8.65
2023-03-26T01:39:32.333Z,8.60
2023-03-26T01:42:12.317Z,8.57
2023-03-26T01:44:41.358Z,8.53
2023-03-26T01:47:14.083Z,8.50
2023-03-26T01:49:54.815Z,8.48
2023-03-26T01:52:26.875Z,8.45
2023-03-26T01:54:58.103Z,8.43
2023-03-26T01:57:42.622Z,8.41
2023-03-26T02:00:21.571Z,8.39
2023-03-26T02:03:19.361Z,8.37
2023-03-26T02:05:58.225Z,8.36
2023-03-26T02:08:57.952Z,8.33
2023-03-26T02:11:35.540Z,8.32
2023-03-26T02:14:08.802Z,8.28
2023-03-26T02:16:38.590Z,8.24
2023-03-26T02:19:16.660Z,8.20
2023-03-26T02:21:49.749Z,8.15
2023-03-26T02:24:19.999Z,8.10
2023-03-26T02:26:53.372Z,8.07
2023-03-26T02:29:23.301Z,7.99
2023-03-26T02:31:53.128Z,7.92
2023-03-26T02:34:22.830Z,7.83
2023-03-26T02:36:54.839Z,7.73
2023-03-26T02:39:25.733Z,7.66
2023-03-26T02:42:01.205Z,7.57
2023-03-26T02:44:33.170Z,7.51
2023-03-26T02:47:03.889Z,7.43
2023-03-26T02:49:34.439Z,7.38
2023-03-26T02:52:07.080Z,7.31
2023-03-26T02:54:38.821Z,7.27
2023-03-26T02:57:18.141Z,7.21
2023-03-26T03:00:17.732Z,7.17
2023-03-26T03:02:50.978Z,7.15
2023-03-26T03:05:27.168Z,7.12
2023-03-26T03:08:23.348Z,7.11
2023-03-26T03:11:18.128Z,7.10
2023-03-26T03:13:49.320Z,7.08
2023-03-26T03:16:25.003Z,7.09
2023-03-26T03:18:58.261Z,7.11
2023-03-26T03:21:37.015Z,7.13
2023-03-26T03:24:07.242Z,7.17
2023-03-26T03:26:42.940Z,7.18
2023-03-26T03:29:20.821Z,7.15
2023-03-26T03:31:50.194Z,7.13
2023-03-26T03:34:38.994Z,7.10
2023-03-26T03:37:09.144Z,7.04
2023-03-26T03:39:47.322Z,7.01
2023-03-26T03:42:20.043Z,6.98
2023-03-26T03:44:50.068Z,6.94
2023-03-26T03:47:39.605Z,6.91
2023-03-26T03:50:11.154Z,6.87
2023-03-26T03:52:47.356Z,6.81
2023-03-26T03:55:18.033Z,6.78
2023-03-26T03:58:00.385Z,6.75
2023-03-26T04:00:31.353Z,6.72
2023-03-26T04:03:14.840Z,6.66
2023-03-26T04:05:55.660Z,6.62
2023-03-26T04:08:28.072Z,6.59
2023-03-26T04:10:58.314Z,6.55
2023-03-26T04:13:46.726Z,6.50
2023-03-26T04:16:26.326Z,6.48
2023-03-26T04:18:57.892Z,6.48
2023-03-26T04:21:31.050Z,6.50
2023-03-26T04:24:02.384Z,6.48
2023-03-26T04:26:52.778Z,6.43
2023-03-26T04:29:31.360Z,6.41
2023-03-26T04:32:07.192Z,6.43
2023-03-26T04:34:37.112Z,6.44
2023-03-26T04:37:28.244Z,6.50
2023-03-26T04:40:19.819Z,6.54
2023-03-26T04:43:06.824Z,6.60
2023-03-26T04:45:55.645Z,6.65
2023-03-26T04:48:27.591Z,6.70
2023-03-26T04:50:57.932Z,6.74
2023-03-26T04:53:28.363Z,6.77
2023-03-26T04:56:34.589Z,6.81
2023-03-26T04:59:35.280Z,6.86
2023-03-26T05:02:14.478Z,6.88
2023-03-26T05:04:52.729Z,6.87
2023-03-26T05:07:24.584Z,6.91
2023-03-26T05:09:57.890Z,6.96
2023-03-26T05:12:42.120Z,6.98
2023-03-26T05:15:16.997Z,7.01
2023-03-26T05:18:05.814Z,7.04
2023-03-26T05:20:58.195Z,7.13
2023-03-26T05:23:30.558Z,7.29
2023-03-26T05:26:19.352Z,7.28
2023-03-26T05:28:49.019Z,7.23
2023-03-26T05:31:49.294Z,7.24
2023-03-26T05:34:21.049Z,7.30
2023-03-26T05:36:55.093Z,7.39
2023-03-26T05:39:39.207Z,7.48
2023-03-26T05:42:36.441Z,7.58
2023-03-26T05:45:26.769Z,7.70
2023-03-26T05:47:57.856Z,7.86
2023-03-26T05:50:28.638Z,7.96
2023-03-26T05:53:01.413Z,8.04
2023-03-26T05:55:56.291Z,8.12
2023-03-26T05:58:44.491Z,8.18
2023-03-26T06:01:45.387Z,8.25
2023-03-26T06:04:29.077Z,8.32
2023-03-26T06:07:18.845Z,8.37
2023-03-26T06:10:01.800Z,8.41
2023-03-26T06:12:32.562Z,8.48
2023-03-26T06:15:02.271Z,8.73
2023-03-26T06:17:53.951Z,8.84
2023-03-26T06:20:42.484Z,8.91
2023-03-26T06:23:24.416Z,8.98
2023-03-26T06:26:19.621Z,9.06
2023-03-26T06:29:34.554Z,9.16
2023-03-26T06:32:39.227Z,9.27
2023-03-26T06:35:12.802Z,9.39
2023-03-26T06:37:43.304Z,9.50
2023-03-26T06:40:14.807Z,9.62
2023-03-26T06:43:08.531Z,9.78
2023-03-26T06:46:14.107Z,9.90
2023-03-26T06:49:08.442Z,10.00
2023-03-26T06:51:56.063Z,10.09
2023-03-26T06:54:48.338Z,10.16
2023-03-26T06:57:37.226Z,10.22
2023-03-26T07:00:32.453Z,10.39
2023-03-26T07:03:23.674Z,10.53
2023-03-26T07:06:32.527Z,10.62
2023-03-26T07:09:30.785Z,10.72
2023-03-26T07:12:18.989Z,10.79
2023-03-26T07:15:08.490Z,10.88
2023-03-26T07:18:09.592Z,11.02
2023-03-26T07:20:43.074Z,11.09
2023-03-26T07:23:20.746Z,11.15
2023-03-26T07:26:42.902Z,11.23
2023-03-26T07:29:45.739Z,11.32
2023-03-26T07:32:46.341Z,11.39
2023-03-26T07:35:57.261Z,11.43
2023-03-26T07:39:19.499Z,11.55
2023-03-26T07:42:36.313Z,11.67
2023-03-26T07:45:41.141Z,11.81
2023-03-26T07:48:42.685Z,11.90
2023-03-26T07:51:41.661Z,11.94
2023-03-26T07:54:31.703Z,11.95
2023-03-26T07:57:38.983Z,11.97
2023-03-26T08:01:03.760Z,12.02
2023-03-26T08:04:25.126Z,12.13
2023-03-26T08:07:34.217Z,12.20
2023-03-26T08:10:30.813Z,12.30
2023-03-26T08:13:11.483Z,12.42
2023-03-26T08:15:54.354Z,12.45
2023-03-26T08:18:42.238Z,12.58
2023-03-26T08:21:26.147Z,12.76
2023-03-26T08:24:18.934Z,12.80
2023-03-26T08:27:10.508Z,12.90
2023-03-26T08:29:55.416Z,13.05
2023-03-26T08:32:25.896Z,13.21
2023-03-26T08:35:16.387Z,13.37
2023-03-26T08:37:48.886Z,13.48
2023-03-26T08:40:58.537Z,13.50
2023-03-26T08:43:55.042Z,13.58
2023-03-26T08:46:49.459Z,13.68
2023-03-26T08:50:00.315Z,13.69
2023-03-26T08:52:36.682Z,13.85
2023-03-26T08:55:14.410Z,14.06
2023-03-26T08:58:34.530Z,14.10
2023-03-26T09:01:34.975Z,14.10
2023-03-26T09:04:23.550Z,14.16
2023-03-26T09:07:11.825Z,14.23
2023-03-26T09:10:17.443Z,14.34
2023-03-26T09:13:15.270Z,14.43
2023-03-26T09:16:23.824Z,14.49
2023-03-26T09:18:59.578Z,14.43
2023-03-26T09:22:06.853Z,14.50
2023-03-26T09:24:46.970Z,14.71
2023-03-26T09:27:27.871Z,14.88
2023-03-26T09:30:38.525Z,14.91
2023-03-26T09:33:14.511Z,14.87
2023-03-26T09:36:02.867Z,14.87
2023-03-26T09:38:46.548Z,14.99
2023-03-26T09:41:44.696Z,15.10
2023-03-26T09:44:44.120Z,15.25
2023-03-26T09:47:22.760Z,15.46
2023-03-26T09:50:32.247Z,15.59
2023-03-26T09:53:01.514Z,15.62
2023-03-26T09:55:46.837Z,15.45
2023-03-26T09:58:33.976Z,15.34
2023-03-26T10:01:42.372Z,15.28
2023-03-26T10:04:27.871Z,15.31
2023-03-26T10:07:36.296Z,15.28
2023-03-26T10:10:32.797Z,15.51
2023-03-26T10:13:26.555Z,15.73
2023-03-26T10:16:29.458Z,15.88
2023-03-26T10:19:17.135Z,16.18
2023-03-26T10:22:13.226Z,16.52
2023-03-26T10:25:05.057Z,16.66
2023-03-26T10:28:09.007Z,16.67
2023-03-26T10:31:17.853Z,16.98
2023-03-26T10:34:06.963Z,17.19
2023-03-26T10:36:42.021Z,17.25
2023-03-26T10:39:36.820Z,17.16
2023-03-26T10:42:18.619Z,17.03
2023-03-26T10:44:50.689Z,17.00
2023-03-26T10:47:39.550Z,17.14
2023-03-26T10:50:37.221Z,17.48
2023-03-26T10:53:31.390Z,17.67
2023-03-26T10:56:30.603Z,17.76
2023-03-26T10:59:09.297Z,17.97
2023-03-26T11:01:54.990Z,17.80
2023-03-26T11:04:53.514Z,17.67
2023-03-26T11:07:44.563Z,17.74
2023-03-26T11:10:15.433Z,17.86
2023-03-26T11:13:00.129Z,17.93
2023-03-26T11:16:00.978Z,17.83
2023-03-26T11:18:40.121Z,17.95
2023-03-26T11:21:48.131Z,17.82
2023-03-26T11:24:40.151Z,17.81
2023-03-26T11:27:20.933Z,17.79
2023-03-26T11:30:04.866Z,17.75
2023-03-26T11:32:48.186Z,17.67
2023-03-26T11:35:39.923Z,17.75
2023-03-26T11:38:32.537Z,17.96
2023-03-26T11:41:05.209Z,18.00
2023-03-26T11:44:22.318Z,18.14
2023-03-26T11:47:01.963Z,18.37
2023-03-26T11:49:33.285Z,18.76
2023-03-26T11:52:04.388Z,19.05
2023-03-26T11:54:34.293Z,19.21
2023-03-26T11:57:17.046Z,19.09
2023-03-26T11:59:59.902Z,19.24
2023-03-26T12:02:40.196Z,19.32
2023-03-26T12:05:26.983Z,19.53
2023-03-26T12:07:59.677Z,19.74
2023-03-26T12:10:39.216Z,19.71
2023-03-26T12:13:21.821Z,19.95
2023-03-26T12:15:51.877Z,20.12
2023-03-26T12:18:27.226Z,19.94
2023-03-26T12:21:05.844Z,19.70
2023-03-26T12:24:07.633Z,19.62
2023-03-26T12:26:47.417Z,19.10
2023-03-26T12:29:19.330Z,18.89
2023-03-26T12:32:16.330Z,18.55
2023-03-26T12:34:47.777Z,18.35
2023-03-26T12:37:37.536Z,18.17
2023-03-26T12:40:29.763Z,18.09
2023-03-26T12:44:55.920Z,18.38
2023-03-26T12:47:55.222Z,18.69
2023-03-26T12:48:55.282Z,18.85
2023-03-26T12:51:53.074Z,18.87
2023-03-26T12:54:34.181Z,18.47
2023-03-26T12:57:25.871Z,18.03
2023-03-26T13:00:14.942Z,17.50
2023-03-26T13:02:48.970Z,17.10
2023-03-26T13:05:40.612Z,16.77
2023-03-26T13:08:36.054Z,16.38
2023-03-26T13:11:29.327Z,16.35
2023-03-26T13:15:54.529Z,16.16
2023-03-26T13:18:29.042Z,16.56
2023-03-26T13:21:12.538Z,16.63
2023-03-26T13:24:04.315Z,16.47
2023-03-26T13:27:01.760Z,16.18
2023-03-26T13:29:57.725Z,15.98
2023-03-26T13:32:59.180Z,16.01
2023-03-26T13:36:06.557Z,16.41
2023-03-26T13:39:10.233Z,17.05
2023-03-26T13:42:00.316Z,17.64
2023-03-26T13:44:50.920Z,17.75
2023-03-26T13:47:30.435Z,17.76
2023-03-26T13:50:07.510Z,17.57
2023-03-26T13:52:53.491Z,17.24
2023-03-26T13:55:31.662Z,17.04
2023-03-26T13:58:26.525Z,16.85
2023-03-26T14:01:47.328Z,16.54
2023-03-26T14:04:34.384Z,16.45
2023-03-26T14:07:35.641Z,16.33
2023-03-26T14:10:24.435Z,16.57
2023-03-26T14:13:45.744Z,16.82
2023-03-26T14:16:17.821Z,17.40
2023-03-26T14:19:06.308Z,17.64
2023-03-26T14:21:49.419Z,18.17
2023-03-26T14:24:57.112Z,18.75
2023-03-26T14:28:04.816Z,19.35
2023-03-26T14:30:57.993Z,19.70
2023-03-26T14:34:03.155Z,19.63
2023-03-26T14:36:50.488Z,19.28
2023-03-26T14:39:54.609Z,18.96
2023-03-26T14:42:44.711Z,18.39
2023-03-26T14:45:54.410Z,18.11
2023-03-26T14:48:49.202Z,17.57
2023-03-26T14:52:03.475Z,17.30
2023-03-26T14:54:41.037Z,17.16
2023-03-26T14:57:47.441Z,16.79
2023-03-26T15:00:42.254Z,16.46
2023-03-26T15:03:43.170Z,16.32
2023-03-26T15:06:21.593Z,16.07
2023-03-26T15:09:00.242Z,15.73
2023-03-26T15:11:36.208Z,15.57
2023-03-26T15:14:25.937Z,15.79
2023-03-26T15:17:13.383Z,15.91
2023-03-26T15:20:13.693Z,15.69
2023-03-26T15:23:09.317Z,15.49
2023-03-26T15:25:44.699Z,15.37
2023-03-26T15:28:36.387Z,15.58
2023-03-26T15:31:37.674Z,15.92
2023-03-26T15:34:09.710Z,16.26
2023-03-26T15:37:00.934Z,16.57
2023-03-26T15:39:59.279Z,16.56
2023-03-26T15:42:46.241Z,16.41
2023-03-26T15:45:38.097Z,16.34
2023-03-26T15:48:36.467Z,16.14
2023-03-26T15:51:47.434Z,15.93
2023-03-26T15:54:23.788Z,15.69
2023-03-26T15:57:17.318Z,15.50
2023-03-26T16:00:17.564Z,15.31
2023-03-26T16:03:12.111Z,15.06
2023-03-26T16:05:48.070Z,14.84
2023-03-26T16:08:59.015Z,14.71
2023-03-26T16:11:54.282Z,14.55
2023-03-26T16:14:36.772Z,14.44
2023-03-26T16:17:08.477Z,14.34
2023-03-26T16:19:44.957Z,14.19
2023-03-26T16:22:42.999Z,14.09
2023-03-26T16:25:35.929Z,13.99
2023-03-26T16:28:29.117Z,13.87
2023-03-26T16:31:36.619Z,13.72
2023-03-26T16:34:11.724Z,13.49
2023-03-26T16:36:46.592Z,13.38
2023-03-26T16:39:25.956Z,13.29
2023-03-26T16:42:06.160Z,13.23
2023-03-26T16:45:34.582Z,13.17
2023-03-26T16:48:20.593Z,13.07
2023-03-26T16:51:23.216Z,13.00
2023-03-26T16:54:25.718Z,12.88
2023-03-26T16:57:02.545Z,12.77
2023-03-26T17:00:05.737Z,12.63
2023-03-26T17:03:02.119Z,12.45
2023-03-26T17:05:59.412Z,12.34
2023-03-26T17:08:57.797Z,12.25
2023-03-26T17:11:42.901Z,12.20
2023-03-26T17:14:31.633Z,12.15
2023-03-26T17:17:04.009Z,12.05
2023-03-26T17:19:45.562Z,11.96
2023-03-26T17:22:41.570Z,11.83
2023-03-26T17:25:44.228Z,11.72
2023-03-26T17:28:28.048Z,11.61
2023-03-26T17:31:00.594Z,11.54
2023-03-26T17:33:39.570Z,11.46
2023-03-26T17:36:12.797Z,11.37
2023-03-26T17:38:49.408Z,11.28
2023-03-26T17:42:13.213Z,11.15
2023-03-26T17:44:53.198Z,10.96
2023-03-26T17:47:39.848Z,10.81
2023-03-26T17:50:25.031Z,10.68
2023-03-26T17:53:05.907Z,10.56
2023-03-26T17:55:50.815Z,10.42
2023-03-26T17:58:50.714Z,10.28
2023-03-26T18:01:36.589Z,10.24
2023-03-26T18:04:16.095Z,10.34
2023-03-26T18:06:54.085Z,10.30
2023-03-26T18:09:42.424Z,10.24
2023-03-26T18:12:42.738Z,10.13
2023-03-26T18:16:02.126Z,10.04
2023-03-26T18:18:54.983Z,9.92
2023-03-26T18:21:34.096Z,9.83
2023-03-26T18:24:07.012Z,9.75
2023-03-26T18:26:46.333Z,9.65
2023-03-26T18:29:27.536Z,9.57
2023-03-26T18:32:01.004Z,9.48
2023-03-26T18:34:33.775Z,9.41
2023-03-26T18:37:23.458Z,9.33
2023-03-26T18:40:13.781Z,9.27
2023-03-26T18:42:55.807Z,9.19
2023-03-26T18:45:39.999Z,9.12
2023-03-26T18:48:19.637Z,9.06
2023-03-26T18:51:07.552Z,8.99
2023-03-26T18:53:49.786Z,8.92
2023-03-26T18:56:32.753Z,8.86
2023-03-26T18:59:33.235Z,8.79
2023-03-26T19:02:11.031Z,8.69
2023-03-26T19:04:46.699Z,8.62
2023-03-26T19:07:24.390Z,8.52
2023-03-26T19:09:57.319Z,8.43
2023-03-26T19:12:37.863Z,8.32
2023-03-26T19:15:15.393Z,8.22
2023-03-26T19:17:49.077Z,8.17
2023-03-26T19:20:30.960Z,8.11
2023-03-26T19:23:02.084Z,8.01
2023-03-26T19:25:55.871Z,7.93
2023-03-26T19:28:35.771Z,7.84
2023-03-26T19:31:12.797Z,7.75
2023-03-26T19:33:46.400Z,7.62
2023-03-26T19:36:21.710Z,7.52
2023-03-26T19:39:05.693Z,7.42
2023-03-26T19:41:44.352Z,7.32
2023-03-26T19:44:31.227Z,7.24
2023-03-26T19:47:15.930Z,7.15
2023-03-26T19:49:56.822Z,7.08
2023-03-26T19:52:34.278Z,7.01
2023-03-26T19:55:10.585Z,6.94
2023-03-26T19:57:40.736Z,6.87
2023-03-26T20:00:15.321Z,6.81
2023-03-26T20:02:53.527Z,6.73
2023-03-26T20:05:26.542Z,6.65
2023-03-26T20:08:01.474Z,6.58
2023-03-26T20:10:31.588Z,6.52
2023-03-26T20:13:03.413Z,6.43
2023-03-26T20:15:43.550Z,6.35
2023-03-26T20:18:15.969Z,6.24
2023-03-26T20:20:51.386Z,6.16
2023-03-26T20:23:24.208Z,6.11
2023-03-26T20:25:55.557Z,6.04
2023-03-26T20:28:25.144Z,5.97
2023-03-26T20:30:55.786Z,5.90
2023-03-26T20:33:29.985Z,5.84
2023-03-26T20:35:59.910Z,5.79
2023-03-26T20:38:39.600Z,5.72
2023-03-26T20:41:27.611Z,5.68
2023-03-26T20:43:58.276Z,5.60
2023-03-26T20:46:33.676Z,5.54
2023-03-26T20:49:07.304Z,5.49
2023-03-26T20:51:38.852Z,5.46
2023-03-26T20:54:28.910Z,5.40
2023-03-26T20:57:00.240Z,5.33
2023-03-26T20:59:30.728Z,5.28
2023-03-26T21:02:05.668Z,5.23
2023-03-26T21:04:39.080Z,5.20
2023-03-26T21:07:17.784Z,5.16
2023-03-26T21:09:49.772Z,5.13
2023-03-26T21:12:33.779Z,5.07
2023-03-26T21:15:10.283Z,5.02
2023-03-26T21:17:46.953Z,4.97
2023-03-26T21:20:19.756Z,4.92
2023-03-26T21:23:13.588Z,4.86
2023-03-26T21:26:10.344Z,4.82
2023-03-26T21:28:58.446Z,4.78
2023-03-26T21:31:31.511Z,4.75
2023-03-26T21:34:08.838Z,4.70
2023-03-26T21:36:39.019Z,4.67
2023-03-26T21:39:12.109Z,4.63
2023-03-26T21:42:05.455Z,4.61
2023-03-26T21:44:37.077Z,4.55
2023-03-26T21:47:10.704Z,4.49
2023-03-26T21:49:39.979Z,4.42
2023-03-26T21:52:16.457Z,4.35
2023-03-26T21:54:47.194Z,4.27
2023-03-26T21:57:35.351Z,4.22
2023-03-26T22:00:15.350Z,4.17
2023-03-26T22:02:55.357Z,4.13
2023-03-26T22:05:49.174Z,4.10
2023-03-26T22:08:28.137Z,4.05
2023-03-26T22:10:58.913Z,4.03
2023-03-26T22:13:28.816Z,4.01
2023-03-26T22:15:59.083Z,3.99
2023-03-26T22:18:30.821Z,3.95
2023-03-26T22:21:00.881Z,3.92
2023-03-26T22:23:35.207Z,3.90
2023-03-26T22:26:06.281Z,3.86
2023-03-26T22:28:35.583Z,3.83
2023-03-26T22:31:09.453Z,3.82
2023-03-26T22:33:40.800Z,3.78
2023-03-26T22:36:22.656Z,3.73
2023-03-26T22:38:57.254Z,3.70
2023-03-26T22:41:26.927Z,3.66
2023-03-26T22:43:59.689Z,3.61
2023-03-26T22:46:36.579Z,3.58
2023-03-26T22:49:06.880Z,3.54
2023-03-26T22:51:37.252Z,3.52
2023-03-26T22:54:06.705Z,3.46
2023-03-26T22:56:37.776Z,3.41
2023-03-26T22:59:07.571Z,3.36
2023-03-26T23:01:37.612Z,3.33
2023-03-26T23:04:07.490Z,3.31
2023-03-26T23:06:37.624Z,3.29
2023-03-26T23:09:07.583Z,3.29
2023-03-26T23:11:37.164Z,3.31
2023-03-26T23:14:07.429Z,3.33
2023-03-26T23:16:38.909Z,3.34
2023-03-26T23:19:08.272Z,3.38
2023-03-26T23:21:38.685Z,3.42
2023-03-26T23:24:09.618Z,3.48
2023-03-26T23:26:49.745Z,3.52
2023-03-26T23:29:21.822Z,3.52
2023-03-26T23:31:53.427Z,3.49
2023-03-26T23:34:26.468Z,3.46
2023-03-26T23:36:56.081Z,3.44
2023-03-26T23:39:27.213Z,3.43
2023-03-26T23:41:56.949Z,3.38
2023-03-26T23:44:26.374Z,3.35
2023-03-26T23:47:00.878Z,3.31
2023-03-26T23:49:30.853Z,3.28
2023-03-26T23:52:01.444Z,3.22
2023-03-26T23:54:35.595Z,3.15
2023-03-26T23:57:06.102Z,3.07
2023-03-26T23:59:36.097Z,3.00
